Time;durP1;ratioP1;P1;durP2;ratioP2;P2;SDS_P1;SDS_P2;PMS_P1;PMS_P2;Temp;Humidity;BMP_temperature;BMP_pressure;BME280_temperature;BME280_humidity;BME280_pressure;Samples;Min_cycle;Max_cycle;Signal;HPM_P1;HPM_P2
2022/03/31 00:01:27;;;;;;;35.67;29.43;;;;;;;7.14;100.00;98507.44;5029380;28;20252;-64
2022/03/31 00:03:52;;;;;;;33.00;27.83;;;;;;;7.13;100.00;98504.94;5035881;28;20186;-65
2022/03/31 00:06:18;;;;;;;37.07;28.57;;;;;;;7.13;100.00;98513.47;5029031;28;20199;-63
2022/03/31 00:08:43;;;;;;;37.50;29.83;;;;;;;7.14;100.00;98511.75;5032656;28;20718;-65
2022/03/31 00:11:08;;;;;;;37.47;30.13;;;;;;;7.14;100.00;98509.19;5032949;28;20591;-66
2022/03/31 00:13:34;;;;;;;34.30;28.43;;;;;;;7.18;100.00;98508.25;5029902;28;20191;-64
2022/03/31 00:15:59;;;;;;;38.03;29.23;;;;;;;7.21;100.00;98505.56;5031359;28;20282;-67
2022/03/31 00:18:27;;;;;;;36.47;28.77;;;;;;;7.23;100.00;98508.13;5023938;28;20223;-64
2022/03/31 00:20:52;;;;;;;38.20;31.07;;;;;;;7.25;100.00;98516.66;5035826;28;20262;-64
2022/03/31 00:23:18;;;;;;;38.23;30.77;;;;;;;7.33;100.00;98512.16;5036288;28;20642;-64
2022/03/31 00:25:43;;;;;;;35.20;29.43;;;;;;;7.33;100.00;98505.28;5029812;28;20199;-64
2022/03/31 00:28:09;;;;;;;36.57;29.87;;;;;;;7.33;100.00;98504.44;5032382;28;20209;-69
2022/03/31 00:30:35;;;;;;;37.43;29.80;;;;;;;7.38;100.00;98501.75;5037381;28;20197;-65
2022/03/31 00:33:01;;;;;;;35.60;29.60;;;;;;;7.40;100.00;98502.56;5030523;28;20185;-63
2022/03/31 00:35:27;;;;;;;41.53;31.83;;;;;;;7.40;100.00;98492.25;5037147;28;20653;-66
2022/03/31 00:37:53;;;;;;;35.80;29.60;;;;;;;7.43;100.00;98497.34;5036405;28;20604;-65
2022/03/31 00:40:21;;;;;;;38.27;30.50;;;;;;;7.42;100.00;98491.34;5036242;28;20190;-65
2022/03/31 00:42:52;;;;;;;38.43;31.03;;;;;;;7.43;100.00;98481.91;5033464;28;20670;-65
2022/03/31 00:45:24;;;;;;;37.63;30.43;;;;;;;7.44;100.00;98487.00;5029678;28;20634;-64
2022/03/31 00:47:52;;;;;;;39.77;30.70;;;;;;;7.46;100.00;98489.56;5028416;28;20185;-64
2022/03/31 00:50:17;;;;;;;37.90;31.77;;;;;;;7.47;100.00;98488.66;5033678;28;20206;-65
2022/03/31 00:52:43;;;;;;;37.97;31.23;;;;;;;7.51;100.00;98489.44;5031675;28;20189;-65
2022/03/31 00:55:11;;;;;;;41.27;31.87;;;;;;;7.52;100.00;98483.41;5033660;28;20711;-68
2022/03/31 00:57:37;;;;;;;40.93;33.00;;;;;;;7.50;100.00;98475.69;5028512;28;20443;-64
2022/03/31 01:00:08;;;;;;;41.73;33.57;;;;;;;7.48;100.00;98475.75;5033276;28;20521;-67
2022/03/31 01:02:38;;;;;;;39.13;31.87;;;;;;;7.45;100.00;98478.41;5033298;28;20192;-67
2022/03/31 01:05:05;;;;;;;39.93;31.83;;;;;;;7.43;100.00;98476.75;5041640;28;20596;-64
2022/03/31 01:07:34;;;;;;;38.60;31.67;;;;;;;7.39;100.00;98470.00;5029693;28;20191;-64
2022/03/31 01:09:59;;;;;;;38.93;32.07;;;;;;;7.36;100.00;98467.47;5039398;28;20208;-67
2022/03/31 01:12:25;;;;;;;41.83;32.63;;;;;;;7.37;100.00;98466.59;5032103;28;20634;-64
2022/03/31 01:15:06;;;;;;;43.70;33.27;;;;;;;7.35;100.00;98458.94;5029640;28;20202;-64
2022/03/31 01:17:33;;;;;;;40.90;31.97;;;;;;;7.35;100.00;98458.06;5027849;28;20190;-65
2022/03/31 01:19:58;;;;;;;42.43;33.50;;;;;;;7.32;100.00;98456.44;5027315;28;20709;-65
2022/03/31 01:22:30;;;;;;;43.77;33.90;;;;;;;7.33;100.00;98447.81;5029381;28;20247;-63
2022/03/31 01:24:56;;;;;;;40.93;33.00;;;;;;;7.31;100.00;98445.31;5032389;28;20193;-63
2022/03/31 01:27:23;;;;;;;41.50;32.67;;;;;;;7.30;100.00;98441.03;5028340;28;20271;-67
2022/03/31 01:29:48;;;;;;;42.67;34.03;;;;;;;7.30;100.00;98441.03;5029250;28;20205;-67
2022/03/31 01:32:13;;;;;;;40.23;32.27;;;;;;;7.31;100.00;98437.59;5025463;28;20206;-63
2022/03/31 01:34:39;;;;;;;40.63;32.83;;;;;;;7.30;100.00;98438.47;5033219;28;20215;-64
2022/03/31 01:37:04;;;;;;;39.30;33.00;;;;;;;7.31;100.00;98435.00;5028161;28;20194;-69
2022/03/31 01:39:30;;;;;;;42.23;33.37;;;;;;;7.29;100.00;98429.06;5036100;28;20217;-63
2022/03/31 01:41:55;;;;;;;37.73;31.77;;;;;;;7.33;100.00;98440.94;5027978;28;20222;-67
2022/03/31 01:44:21;;;;;;;39.37;30.33;;;;;;;7.32;100.00;98433.28;5035621;28;20192;-70
2022/03/31 01:46:48;;;;;;;35.17;28.90;;;;;;;7.31;100.00;98435.00;5035001;28;20192;-64
2022/03/31 01:49:13;;;;;;;37.27;30.60;;;;;;;7.33;100.00;98429.81;5035149;28;20251;-69
2022/03/31 01:51:38;;;;;;;34.87;28.90;;;;;;;7.31;100.00;98422.16;5029167;28;20210;-63
2022/03/31 01:54:04;;;;;;;35.60;28.80;;;;;;;7.27;100.00;98425.69;5040710;28;20215;-64
2022/03/31 01:56:30;;;;;;;35.83;30.03;;;;;;;7.26;100.00;98423.97;5040194;28;20234;-64
2022/03/31 01:58:55;;;;;;;32.40;27.87;;;;;;;7.28;100.00;98417.06;5032191;28;20210;-69
2022/03/31 02:01:20;;;;;;;33.73;28.40;;;;;;;7.27;100.00;98417.09;5026617;28;20740;-63
2022/03/31 02:03:46;;;;;;;35.67;27.83;;;;;;;7.26;100.00;98413.69;5028009;28;20559;-64
2022/03/31 02:06:11;;;;;;;30.83;26.37;;;;;;;7.26;100.00;98407.72;5030682;28;20177;-64
2022/03/31 02:08:36;;;;;;;30.17;25.50;;;;;;;7.23;100.00;98412.94;5029130;28;20213;-64
2022/03/31 02:11:02;;;;;;;30.60;25.70;;;;;;;7.22;100.00;98409.50;5027354;28;20221;-67
2022/03/31 02:13:28;;;;;;;29.53;26.20;;;;;;;7.20;100.00;98407.84;5030413;28;20212;-62
2022/03/31 02:15:54;;;;;;;29.03;24.67;;;;;;;7.17;100.00;98401.06;5030874;28;20204;-67
2022/03/31 02:18:20;;;;;;;34.47;26.33;;;;;;;7.14;100.00;98401.16;5027034;28;20208;-69
2022/03/31 02:20:45;;;;;;;28.50;24.67;;;;;;;7.12;100.00;98395.19;5023713;28;20191;-63
2022/03/31 02:23:11;;;;;;;28.50;24.50;;;;;;;7.12;100.00;98390.06;5034724;28;20252;-68
2022/03/31 02:25:36;;;;;;;28.60;25.03;;;;;;;7.14;100.00;98386.53;5032286;28;20618;-63
2022/03/31 02:28:02;;;;;;;28.97;24.80;;;;;;;7.10;100.00;98390.09;5043058;28;20183;-63
2022/03/31 02:30:28;;;;;;;29.57;24.53;;;;;;;7.10;100.00;98378.94;5028859;28;20193;-64
2022/03/31 02:32:53;;;;;;;30.20;25.73;;;;;;;7.10;100.00;98379.81;5029863;28;20186;-65
2022/03/31 02:35:19;;;;;;;29.03;25.17;;;;;;;7.11;100.00;98381.47;5031049;28;20554;-64
2022/03/31 02:37:44;;;;;;;29.27;25.30;;;;;;;7.10;100.00;98374.66;5029342;28;20566;-64
2022/03/31 02:40:09;;;;;;;26.93;24.03;;;;;;;7.11;100.00;98372.91;5029413;28;20211;-64
2022/03/31 02:42:35;;;;;;;27.20;24.20;;;;;;;7.11;100.00;98368.59;5029445;28;20192;-64
2022/03/31 02:45:03;;;;;;;25.87;23.07;;;;;;;7.09;100.00;98369.53;5027530;28;20652;-63
2022/03/31 02:47:29;;;;;;;27.60;23.67;;;;;;;7.08;100.00;98363.56;5027328;28;20275;-64
2022/03/31 02:49:56;;;;;;;29.87;24.40;;;;;;;7.06;100.00;98365.34;5027368;28;20273;-69
2022/03/31 02:52:22;;;;;;;28.20;24.40;;;;;;;7.04;100.00;98355.94;5026444;28;20188;-66
2022/03/31 02:58:04;;;;;;;27.63;23.57;;;;;;;7.01;100.00;98360.31;4985184;28;20201;-64
2022/03/31 03:00:33;;;;;;;25.13;22.37;;;;;;;7.00;100.00;98362.91;4973239;28;20193;-64
2022/03/31 03:03:01;;;;;;;23.43;20.93;;;;;;;7.00;100.00;98366.34;5014838;28;20206;-63
2022/03/31 03:05:27;;;;;;;26.57;22.53;;;;;;;6.98;100.00;98356.94;5040813;28;20252;-63
2022/03/31 03:07:52;;;;;;;25.43;22.30;;;;;;;6.99;100.00;98350.91;5034926;28;20683;-64
2022/03/31 03:10:17;;;;;;;24.67;21.57;;;;;;;6.96;100.00;98354.44;5033945;28;20439;-63
2022/03/31 03:12:43;;;;;;;23.93;21.43;;;;;;;6.97;100.00;98355.25;5037759;28;20183;-68
2022/03/31 03:15:09;;;;;;;23.13;20.73;;;;;;;6.93;100.00;98351.09;5023550;28;20232;-65
2022/03/31 03:17:39;;;;;;;22.87;20.53;;;;;;;6.92;100.00;98346.84;5033240;28;20216;-67
2022/03/31 03:20:06;;;;;;;22.90;20.47;;;;;;;6.85;100.00;98341.00;5033599;28;20234;-69
2022/03/31 03:22:32;;;;;;;23.27;20.77;;;;;;;6.83;100.00;98345.34;5026963;28;20191;-66
2022/03/31 03:24:57;;;;;;;23.77;21.00;;;;;;;6.81;100.00;98341.97;5036836;28;20266;-65
2022/03/31 03:27:23;;;;;;;23.90;19.80;;;;;;;6.78;100.00;98340.31;5031904;28;20267;-67
2022/03/31 03:29:48;;;;;;;23.20;20.80;;;;;;;6.77;100.00;98341.19;5034906;28;20218;-62
2022/03/31 03:32:15;;;;;;;24.57;20.50;;;;;;;6.75;100.00;98342.97;5031346;28;20688;-67
2022/03/31 03:34:41;;;;;;;22.73;20.23;;;;;;;6.74;100.00;98340.41;5041062;28;20254;-64
2022/03/31 03:37:06;;;;;;;24.13;21.33;;;;;;;6.67;100.00;98348.28;5035215;28;20182;-63
2022/03/31 03:39:34;;;;;;;24.37;21.77;;;;;;;6.58;100.00;98348.50;5029754;28;20210;-63
2022/03/31 03:42:00;;;;;;;24.57;21.97;;;;;;;6.53;100.00;98343.47;5030117;28;20188;-67
2022/03/31 03:44:25;;;;;;;27.37;23.47;;;;;;;6.42;100.00;98342.88;5039247;28;20557;-64
2022/03/31 03:46:51;;;;;;;33.37;28.80;;;;;;;6.35;100.00;98342.19;5037864;28;20179;-63
2022/03/31 03:49:17;;;;;;;34.60;29.20;;;;;;;6.25;100.00;98344.13;5024181;28;20279;-64
2022/03/31 03:51:43;;;;;;;45.80;35.13;;;;;;;6.17;100.00;98347.72;5032764;28;20191;-66
2022/03/31 03:54:08;;;;;;;54.80;38.93;;;;;;;6.04;100.00;98336.91;5033880;28;20195;-64
2022/03/31 03:56:34;;;;;;;67.30;43.87;;;;;;;5.94;100.00;98346.50;5038047;28;20227;-63
2022/03/31 03:58:59;;;;;;;84.27;48.90;;;;;;;5.87;100.00;98342.34;5037884;28;20210;-63
2022/03/31 04:01:27;;;;;;;100.47;54.30;;;;;;;5.80;100.00;98336.50;5035973;28;20208;-63
2022/03/31 04:03:52;;;;;;;115.70;57.93;;;;;;;5.72;100.00;98344.34;5031786;28;20222;-65
2022/03/31 04:06:18;;;;;;;132.87;63.33;;;;;;;5.63;100.00;98352.25;5028369;28;20643;-66
2022/03/31 04:08:43;;;;;;;158.60;72.20;;;;;;;5.58;100.00;98336.09;5038382;28;20722;-62
2022/03/31 04:11:08;;;;;;;190.40;76.80;;;;;;;5.55;100.00;98339.59;5032043;28;20199;-58
2022/03/31 04:13:34;;;;;;;202.00;82.00;;;;;;;5.57;100.00;98344.66;5038755;28;20187;-61
2022/03/31 04:15:59;;;;;;;204.87;81.90;;;;;;;5.51;100.00;98344.81;5038058;28;20203;-60
2022/03/31 04:18:25;;;;;;;217.00;87.00;;;;;;;5.45;100.00;98341.47;5037496;28;20699;-61
2022/03/31 04:20:50;;;;;;;224.50;84.27;;;;;;;5.46;100.00;98350.00;5040045;28;20557;-59
2022/03/31 04:23:15;;;;;;;221.37;85.53;;;;;;;5.37;100.00;98345.06;5026740;28;20237;-61
2022/03/31 04:25:40;;;;;;;261.60;92.73;;;;;;;5.36;100.00;98349.38;5022199;28;20189;-64
2022/03/31 04:28:06;;;;;;;257.60;91.77;;;;;;;5.30;100.00;98344.34;5032205;28;20215;-59
2022/03/31 04:30:32;;;;;;;265.60;91.67;;;;;;;5.26;100.00;98337.56;5030665;28;20218;-62
2022/03/31 04:32:57;;;;;;;255.27;91.90;;;;;;;5.19;100.00;98349.66;5035294;28;20191;-60
2022/03/31 04:35:23;;;;;;;251.23;89.77;;;;;;;5.20;100.00;98343.66;5032538;28;20275;-62
2022/03/31 04:37:48;;;;;;;277.00;95.40;;;;;;;5.18;100.00;98342.84;5030655;28;20266;-61
2022/03/31 04:40:14;;;;;;;294.27;95.50;;;;;;;5.13;100.00;98340.38;5031515;28;20198;-59
2022/03/31 04:42:39;;;;;;;297.13;95.77;;;;;;;5.13;100.00;98336.97;5036497;28;20187;-60
2022/03/31 04:45:05;;;;;;;306.37;99.27;;;;;;;5.10;100.00;98340.41;5033078;28;20250;-60
2022/03/31 04:47:32;;;;;;;313.60;100.13;;;;;;;5.04;100.00;98328.56;5029540;28;20196;-60
2022/03/31 04:49:57;;;;;;;314.70;98.57;;;;;;;5.00;100.00;98341.47;5035249;28;20591;-61
2022/03/31 04:52:23;;;;;;;286.40;98.07;;;;;;;4.93;100.00;98342.41;5037200;28;20195;-62
2022/03/31 04:54:48;;;;;;;348.23;102.83;;;;;;;4.90;100.00;98342.50;5040829;28;20290;-61
2022/03/31 04:57:16;;;;;;;307.47;98.13;;;;;;;4.88;100.00;98343.38;5025020;28;20187;-62
2022/03/31 04:59:41;;;;;;;317.07;101.07;;;;;;;4.93;100.00;98345.00;5025594;28;20712;-62
2022/03/31 05:02:07;;;;;;;359.03;105.73;;;;;;;4.92;100.00;98341.59;5018812;28;20230;-66
2022/03/31 05:04:32;;;;;;;349.23;104.03;;;;;;;4.95;100.00;98345.81;5028166;28;20203;-62
2022/03/31 05:06:58;;;;;;;355.10;105.40;;;;;;;4.91;100.00;98337.34;5028624;28;20199;-63
2022/03/31 05:09:24;;;;;;;350.03;103.80;;;;;;;4.90;100.00;98334.81;5031933;28;20213;-63
2022/03/31 05:11:49;;;;;;;333.07;101.27;;;;;;;4.87;100.00;98341.69;5032614;28;20183;-63
2022/03/31 05:14:14;;;;;;;330.53;99.83;;;;;;;4.88;100.00;98345.06;5027654;28;20701;-63
2022/03/31 05:16:40;;;;;;;345.57;103.60;;;;;;;4.90;100.00;98334.81;5027653;28;20777;-62
2022/03/31 05:19:05;;;;;;;346.53;103.33;;;;;;;4.88;100.00;98338.25;5029310;28;20211;-62
2022/03/31 05:21:31;;;;;;;346.70;103.53;;;;;;;4.90;100.00;98340.78;5027515;28;20203;-61
2022/03/31 05:23:56;;;;;;;367.40;104.53;;;;;;;4.85;100.00;98340.84;5029567;28;20543;-63
2022/03/31 05:26:21;;;;;;;362.30;105.37;;;;;;;4.86;100.00;98332.28;5020870;28;20379;-62
2022/03/31 05:28:47;;;;;;;355.10;103.33;;;;;;;4.85;100.00;98338.28;5023651;28;20204;-62
2022/03/31 05:31:12;;;;;;;354.63;104.50;;;;;;;4.80;100.00;98334.94;5032724;28;20190;-64
2022/03/31 05:33:37;;;;;;;347.90;104.67;;;;;;;4.77;100.00;98337.56;5022638;28;20191;-62
2022/03/31 05:36:04;;;;;;;356.23;103.17;;;;;;;4.82;100.00;98324.69;5024440;28;20227;-62
2022/03/31 05:38:29;;;;;;;345.73;102.20;;;;;;;4.86;100.00;98334.00;5026871;28;20214;-63
2022/03/31 05:40:54;;;;;;;397.43;104.20;;;;;;;4.81;100.00;98330.69;5021753;28;20192;-63
2022/03/31 05:43:21;;;;;;;378.63;104.73;;;;;;;4.78;100.00;98329.00;5022402;28;20190;-63
2022/03/31 05:45:47;;;;;;;405.70;104.13;;;;;;;4.81;100.00;98323.00;5021256;28;20183;-63
2022/03/31 05:48:12;;;;;;;391.03;104.10;;;;;;;4.82;100.00;98319.56;5019670;28;20228;-63
2022/03/31 05:50:37;;;;;;;394.23;105.97;;;;;;;4.83;100.00;98314.41;5025506;28;20188;-64
2022/03/31 05:53:03;;;;;;;379.40;107.47;;;;;;;4.86;100.00;98319.47;5028548;28;20179;-64
2022/03/31 05:55:28;;;;;;;409.07;105.47;;;;;;;4.84;100.00;98318.66;5024152;28;20200;-62
2022/03/31 05:57:54;;;;;;;338.00;96.33;;;;;;;4.82;100.00;98315.28;5027935;28;20483;-63
2022/03/31 06:00:21;;;;;;;341.27;98.13;;;;;;;4.86;100.00;98314.34;5026843;28;20195;-64
2022/03/31 06:02:47;;;;;;;342.73;96.97;;;;;;;4.89;100.00;98310.88;5028409;28;20191;-63
2022/03/31 06:05:13;;;;;;;346.43;93.93;;;;;;;4.92;100.00;98321.09;5024549;28;20191;-64
2022/03/31 06:07:39;;;;;;;339.80;95.27;;;;;;;4.93;100.00;98317.66;5022289;28;20660;-63
2022/03/31 06:10:06;;;;;;;358.70;98.97;;;;;;;4.97;100.00;98321.00;5024354;28;20200;-62
2022/03/31 06:12:32;;;;;;;360.33;97.40;;;;;;;4.99;100.00;98324.38;5024656;28;20680;-62
2022/03/31 06:14:57;;;;;;;346.07;94.40;;;;;;;4.99;100.00;98317.53;5022275;28;20303;-63
2022/03/31 06:17:23;;;;;;;323.07;95.03;;;;;;;5.02;100.00;98321.78;5020795;28;20223;-63
2022/03/31 06:19:49;;;;;;;357.67;98.97;;;;;;;5.04;100.00;98320.03;5027350;28;20253;-62
2022/03/31 06:22:14;;;;;;;372.33;103.17;;;;;;;5.04;100.00;98323.44;5022554;28;20188;-62
2022/03/31 06:24:40;;;;;;;423.20;104.57;;;;;;;5.06;100.00;98320.84;5026830;28;20176;-62
2022/03/31 06:27:08;;;;;;;361.60;104.83;;;;;;;5.08;100.00;98318.25;5023788;28;20191;-61
2022/03/31 06:29:34;;;;;;;363.63;104.27;;;;;;;5.07;100.00;98319.94;5024293;28;20208;-63
2022/03/31 06:31:59;;;;;;;383.57;107.10;;;;;;;5.06;100.00;98313.16;5019793;28;20196;-62
2022/03/31 06:34:25;;;;;;;389.97;108.63;;;;;;;5.06;100.00;98313.16;5027175;28;20180;-64
2022/03/31 06:36:50;;;;;;;360.63;101.10;;;;;;;5.03;100.00;98315.78;5024535;28;20190;-62
2022/03/31 06:39:16;;;;;;;401.50;110.47;;;;;;;5.08;100.00;98311.38;5016124;28;20245;-63
2022/03/31 06:41:44;;;;;;;407.80;107.50;;;;;;;5.06;100.00;98308.03;5027104;28;20231;-63
2022/03/31 06:44:13;;;;;;;371.93;104.33;;;;;;;5.06;100.00;98305.47;5024998;28;20243;-64
2022/03/31 06:46:42;;;;;;;374.03;104.80;;;;;;;5.09;100.00;98302.00;5024131;28;20192;-62
2022/03/31 06:49:08;;;;;;;376.97;102.33;;;;;;;5.11;100.00;98310.50;5015793;28;20220;-63
2022/03/31 06:51:34;;;;;;;375.43;106.13;;;;;;;5.15;100.00;98318.09;5026284;28;20191;-64
2022/03/31 06:53:59;;;;;;;374.40;101.40;;;;;;;5.18;100.00;98312.06;5030616;28;20548;-62
2022/03/31 06:56:27;;;;;;;371.97;100.10;;;;;;;5.23;100.00;98306.84;5025976;28;20224;-63
2022/03/31 06:58:56;;;;;;;379.53;100.97;;;;;;;5.25;100.00;98313.66;5029106;28;20210;-62
2022/03/31 07:01:23;;;;;;;382.17;104.90;;;;;;;5.28;100.00;98310.19;5024578;28;20190;-64
2022/03/31 07:03:49;;;;;;;369.20;102.70;;;;;;;5.27;100.00;98311.03;5025180;28;20187;-61
2022/03/31 07:06:14;;;;;;;418.20;107.07;;;;;;;5.30;100.00;98306.69;5023640;28;20189;-63
2022/03/31 07:08:40;;;;;;;367.70;101.53;;;;;;;5.29;100.00;98305.03;5029240;28;20712;-62
2022/03/31 07:11:06;;;;;;;406.47;108.87;;;;;;;5.31;100.00;98302.44;5032947;28;20214;-62
2022/03/31 07:13:31;;;;;;;411.10;108.43;;;;;;;5.30;100.00;98304.13;5034996;28;20194;-63
2022/03/31 07:15:57;;;;;;;376.53;101.87;;;;;;;5.26;100.00;98306.78;5037256;28;20670;-64
2022/03/31 07:18:23;;;;;;;368.50;100.77;;;;;;;5.27;100.00;98303.34;5032178;28;20212;-63
2022/03/31 07:20:50;;;;;;;354.00;98.60;;;;;;;5.29;100.00;98314.44;5021466;28;20192;-62
2022/03/31 07:23:18;;;;;;;356.27;99.57;;;;;;;5.30;100.00;98309.25;5047277;28;20215;-63
2022/03/31 07:25:43;;;;;;;368.23;101.03;;;;;;;5.32;100.00;98315.22;5038342;28;20183;-62
2022/03/31 07:28:09;;;;;;;384.37;102.13;;;;;;;5.28;100.00;98312.75;5037912;28;20203;-62
2022/03/31 07:30:34;;;;;;;380.07;99.43;;;;;;;5.27;100.00;98318.75;5030019;28;20762;-63
2022/03/31 07:33:03;;;;;;;385.60;100.93;;;;;;;5.26;100.00;98314.47;5036609;28;20187;-63
2022/03/31 07:35:33;;;;;;;357.57;97.73;;;;;;;5.28;100.00;98312.75;5038381;28;20207;-62
2022/03/31 07:37:59;;;;;;;373.87;100.43;;;;;;;5.30;100.00;98318.69;5037919;28;20196;-63
2022/03/31 07:40:27;;;;;;;350.57;95.63;;;;;;;5.32;100.00;98324.63;5042796;28;20196;-63
2022/03/31 07:42:53;;;;;;;332.10;93.43;;;;;;;5.34;100.00;98317.75;5029976;28;20211;-63
2022/03/31 07:45:19;;;;;;;380.37;99.67;;;;;;;5.30;100.00;98313.56;5034476;28;20556;-63
2022/03/31 07:47:45;;;;;;;389.77;102.33;;;;;;;5.30;100.00;98311.00;5039641;28;20278;-64
2022/03/31 07:50:13;;;;;;;401.50;105.27;;;;;;;5.32;100.00;98304.94;5041619;28;20190;-63
2022/03/31 07:52:40;;;;;;;371.67;101.13;;;;;;;5.34;100.00;98310.91;5038584;28;20191;-65
2022/03/31 07:55:07;;;;;;;397.33;102.33;;;;;;;5.38;100.00;98303.16;5035615;28;20198;-64
2022/03/31 07:57:33;;;;;;;368.87;98.10;;;;;;;5.42;100.00;98304.78;5038795;28;20512;-63
2022/03/31 07:59:59;;;;;;;403.93;104.07;;;;;;;5.45;100.00;98307.25;5041400;28;20209;-64
2022/03/31 08:02:25;;;;;;;355.67;96.00;;;;;;;5.43;100.00;98311.59;5030236;28;20187;-64
2022/03/31 08:04:52;;;;;;;382.60;100.77;;;;;;;5.43;100.00;98303.91;5028792;28;20179;-63
2022/03/31 08:07:18;;;;;;;376.33;98.10;;;;;;;5.46;100.00;98301.25;5031769;28;20274;-64
2022/03/31 08:09:43;;;;;;;398.00;98.73;;;;;;;5.51;100.00;98301.19;5038152;28;20281;-63
2022/03/31 08:12:09;;;;;;;391.10;97.77;;;;;;;5.60;100.00;98293.28;5033501;28;20179;-64
2022/03/31 08:14:35;;;;;;;362.40;95.90;;;;;;;5.69;100.00;98300.78;5038805;28;20191;-64
2022/03/31 08:17:00;;;;;;;379.10;97.87;;;;;;;5.71;100.00;98291.34;5040893;28;20651;-64
2022/03/31 08:19:29;;;;;;;331.30;93.17;;;;;;;5.78;100.00;98292.91;5037370;28;20226;-63
2022/03/31 08:21:56;;;;;;;369.43;96.17;;;;;;;5.88;100.00;98291.00;5037361;28;20187;-63
2022/03/31 08:24:21;;;;;;;350.87;96.43;;;;;;;6.02;100.00;98290.69;5034961;28;20191;-64
2022/03/31 08:26:46;;;;;;;353.17;93.00;;;;;;;6.05;100.00;98290.63;5038552;28;20176;-63
2022/03/31 08:29:12;;;;;;;327.27;88.90;;;;;;;6.04;100.00;98288.94;5037725;28;20706;-63
2022/03/31 08:31:38;;;;;;;330.10;87.07;;;;;;;6.16;100.00;98286.97;5034204;28;20231;-63
2022/03/31 08:34:05;;;;;;;306.00;86.23;;;;;;;6.21;100.00;98290.28;5027808;28;20190;-62
2022/03/31 08:36:31;;;;;;;289.10;85.40;;;;;;;6.22;100.00;98292.81;5027144;28;20230;-64
2022/03/31 08:38:57;;;;;;;316.20;87.83;;;;;;;6.26;100.00;98291.03;5034361;28;20219;-62
2022/03/31 08:41:27;;;;;;;303.07;83.63;;;;;;;6.35;100.00;98289.97;5036340;28;20242;-63
2022/03/31 08:43:53;;;;;;;295.00;83.23;;;;;;;6.40;100.00;98288.97;5034830;28;20194;-63
2022/03/31 08:46:20;;;;;;;291.83;82.93;;;;;;;6.59;100.00;98290.25;5038631;28;20192;-63
2022/03/31 08:48:46;;;;;;;300.23;84.10;;;;;;;6.65;100.00;98293.50;5033404;28;20282;-63
2022/03/31 08:51:11;;;;;;;248.80;77.60;;;;;;;6.55;100.00;98297.19;5027868;28;20196;-63
2022/03/31 08:53:37;;;;;;;282.17;79.00;;;;;;;6.60;100.00;98290.19;5025365;28;20194;-63
2022/03/31 08:56:04;;;;;;;245.63;76.73;;;;;;;6.61;100.00;98294.44;5022452;28;20215;-63
2022/03/31 08:58:30;;;;;;;288.73;81.03;;;;;;;6.86;100.00;98293.84;5021763;28;20216;-63
2022/03/31 09:00:56;;;;;;;271.47;79.67;;;;;;;6.84;100.00;98287.88;5026859;28;20199;-63
2022/03/31 09:03:35;;;;;;;263.27;77.80;;;;;;;6.85;100.00;98290.41;5022106;28;20185;-63
2022/03/31 09:06:01;;;;;;;263.73;74.67;;;;;;;6.90;100.00;98292.03;5023347;28;20188;-64
2022/03/31 09:08:26;;;;;;;246.07;74.70;;;;;;;7.06;100.00;98282.16;5022577;28;20205;-63
2022/03/31 09:10:57;;;;;;;272.00;75.83;;;;;;;7.36;100.00;98284.78;5035515;28;20218;-63
2022/03/31 09:13:22;;;;;;;247.13;76.70;;;;;;;7.44;100.00;98290.56;5032629;28;20177;-63
2022/03/31 09:15:48;;;;;;;233.10;73.70;;;;;;;7.81;100.00;98286.91;5032639;28;20272;-63
2022/03/31 09:18:17;;;;;;;218.73;72.53;;;;;;;7.86;100.00;98285.03;5023557;28;20216;-63
2022/03/31 09:20:44;;;;;;;186.70;65.40;;;;;;;7.75;100.00;98275.06;5022107;28;20247;-64
2022/03/31 09:23:17;;;;;;;194.20;63.90;;;;;;;7.83;100.00;98285.13;5029740;28;20187;-64
2022/03/31 09:25:44;;;;;;;182.40;63.83;;;;;;;7.69;100.00;98284.69;5032825;28;20693;-63
2022/03/31 09:28:21;;;;;;;180.97;60.40;;;;;;;7.83;100.00;98284.31;5026469;28;20498;-63
2022/03/31 09:30:56;;;;;;;187.37;62.27;;;;;;;7.95;100.00;98281.34;5021721;28;20182;-63
2022/03/31 09:33:33;;;;;;;203.83;65.07;;;;;;;7.80;100.00;98274.09;5024893;28;20185;-63
2022/03/31 09:36:13;;;;;;;174.73;59.73;;;;;;;7.88;100.00;98279.84;5027025;28;20235;-64
2022/03/31 09:38:43;;;;;;;166.13;60.13;;;;;;;7.64;100.00;98274.53;5027910;28;20222;-64
2022/03/31 09:41:19;;;;;;;157.03;59.43;;;;;;;7.42;100.00;98272.56;5023203;28;20591;-64
2022/03/31 09:43:45;;;;;;;185.63;58.73;;;;;;;7.57;100.00;98271.31;5021548;28;20280;-64
2022/03/31 09:46:38;;;;;;;179.07;64.03;;;;;;;7.51;100.00;98278.38;5022690;28;20594;-65
2022/03/31 09:49:26;;;;;;;187.47;60.07;;;;;;;7.49;100.00;98283.53;5030799;28;20211;-63
2022/03/31 09:51:54;;;;;;;189.83;64.63;;;;;;;7.47;100.00;98278.44;5027239;28;20269;-64
2022/03/31 09:54:23;;;;;;;166.00;58.93;;;;;;;7.49;100.00;98278.38;5019790;28;20661;-63
2022/03/31 09:56:49;;;;;;;180.40;60.33;;;;;;;7.44;100.00;98277.69;5014552;28;20292;-63
2022/03/31 09:59:16;;;;;;;183.20;62.23;;;;;;;7.46;100.00;98291.38;5027606;28;20212;-64
2022/03/31 10:01:42;;;;;;;179.70;64.93;;;;;;;7.35;100.00;98272.78;5025076;28;20196;-64
2022/03/31 10:04:10;;;;;;;204.17;64.73;;;;;;;7.21;100.00;98280.91;5028150;28;20254;-63
2022/03/31 10:06:37;;;;;;;208.70;66.70;;;;;;;7.11;100.00;98272.59;5027293;28;20193;-65
2022/03/31 10:09:05;;;;;;;196.77;66.73;;;;;;;7.05;100.00;98277.91;5023558;28;20576;-64
2022/03/31 10:11:33;;;;;;;200.40;64.67;;;;;;;7.03;100.00;98269.41;5026231;28;20528;-64
2022/03/31 10:14:23;;;;;;;178.53;66.07;;;;;;;6.80;100.00;98270.84;5026831;28;20656;-64
2022/03/31 10:16:51;;;;;;;197.93;66.33;;;;;;;6.78;100.00;98262.31;5025646;28;20568;-63
2022/03/31 10:19:29;;;;;;;202.30;69.57;;;;;;;6.94;100.00;98260.22;5025460;28;20208;-63
2022/03/31 10:21:59;;;;;;;188.70;66.13;;;;;;;6.82;100.00;98266.50;5024992;28;20638;-63
2022/03/31 10:24:45;;;;;;;198.67;67.43;;;;;;;6.88;100.00;98256.09;5019188;28;20294;-64
2022/03/31 10:27:33;;;;;;;202.40;68.63;;;;;;;7.00;100.00;98262.59;5020198;28;20196;-64
2022/03/31 10:30:23;;;;;;;200.63;65.90;;;;;;;7.24;100.00;98262.84;5036756;28;20209;-63
2022/03/31 10:33:04;;;;;;;199.57;64.73;;;;;;;7.45;100.00;98266.53;5018199;28;20642;-66
2022/03/31 10:35:34;;;;;;;183.03;63.40;;;;;;;7.23;100.00;98274.00;5021443;28;20217;-66
2022/03/31 10:38:18;;;;;;;198.83;66.80;;;;;;;7.05;100.00;98268.47;5026098;28;20211;-64
2022/03/31 10:40:49;;;;;;;195.20;63.73;;;;;;;6.97;100.00;98266.09;5019251;28;20247;-63
2022/03/31 10:43:31;;;;;;;197.70;62.03;;;;;;;7.05;100.00;98265.91;5025462;28;20178;-63
2022/03/31 10:45:59;;;;;;;192.73;63.13;;;;;;;7.08;100.00;98273.53;5026468;28;20257;-64
2022/03/31 10:48:26;;;;;;;188.57;62.57;;;;;;;7.05;100.00;98272.75;5026467;28;20583;-63
2022/03/31 10:51:07;;;;;;;207.10;64.87;;;;;;;6.94;100.00;98268.75;5025898;28;21009;-65
2022/03/31 10:53:35;;;;;;;190.03;58.73;;;;;;;6.99;100.00;98268.63;5020432;28;20203;-65
2022/03/31 10:56:02;;;;;;;206.40;63.63;;;;;;;7.04;100.00;98271.06;5024783;28;20230;-64
2022/03/31 10:58:30;;;;;;;205.67;67.27;;;;;;;7.13;100.00;98269.09;5028922;28;20227;-63
2022/03/31 11:00:58;;;;;;;198.53;64.33;;;;;;;7.14;100.00;98259.66;5029315;28;20239;-64
2022/03/31 11:03:24;;;;;;;195.77;64.83;;;;;;;7.11;100.00;98260.56;5030711;28;20191;-65
2022/03/31 11:05:50;;;;;;;189.47;65.23;;;;;;;7.04;100.00;98263.34;5023891;28;20175;-64
2022/03/31 11:08:19;;;;;;;183.37;63.13;;;;;;;7.03;100.00;98241.94;5025875;28;20569;-65
2022/03/31 11:10:50;;;;;;;167.93;58.93;;;;;;;6.89;100.00;98242.31;5024453;28;20191;-65
2022/03/31 11:13:18;;;;;;;174.53;60.37;;;;;;;6.99;100.00;98241.19;5027140;28;20192;-65